AYPY/POM METAR and TAF weather

Enter ICAO airport designator
Station Type Date Time Source
AYPY METAR 2019/08/22 02:00 UTC NOAA

AYPY 220200Z 17015G25KT 9999 FU HZ FEW050 30/20 Q1012=


Station Type Date Time Source
AYPY Decoded METAR 2019/08/22 02:00 UTC NOAA

Station name not available
Aug 21, 2019 - 10:00 PM EDT / 2019.08.22 0200 UTC
Wind: from the S (170 degrees) at 17 MPH (15 KT) gusting to 29 MPH (25 KT):0
Visibility: greater than 7 mile(s):0
Sky conditions: mostly clear
Weather: smoke; haze
Temperature: 86 F (30 C)
Dew Point: 68 F (20 C)
Relative Humidity: 55%
Pressure (altimeter): 29.88 in. Hg (1012 hPa)
ob: AYPY 220200Z 17015G25KT 9999 FU HZ FEW050 30/20 Q1012=
cycle: 2

Station Type Date Time Source
AYPY TAF 2019/08/21 18:57 UTC NOAA

TAF TAF AYPY 211615Z 2118/2218 16015KT 9999 FEW018 BKN030

Example: see airport list